Chapleau, Canada
Current Conditions -  °F | °C
As of 5:00 PM on Sunday 23 Nov 2014 (Local Time) from CYLD Reporting Station
Drizzle Drizzle  
Wind Chill: 34°   Ceiling: 200
Heat Index: 39°   Visibility: 3mi
Dew Point: 39°   Wind: 8mph
Humidity: 100%   Direction: 180°S
Pressure: 29.56"   Gusts: NA
Location:  47.84°N, 83.4°W
Report Text: CYLD 232200Z 18007KT 3SM -DZ BR OVC002 04/04 A2956 RMK ST8SLP026
Loading
Personal Weather Stations






























Interactive Weather Map New forecast layout! Learn more

10-Day Weather Forecast

Advertisements
Track Severe Weather on mobile